sensor_id;sensor_type;location;lat;lon;timestamp;temperature;humidity
12726;DHT22;6427;49.754;6.106;2023-04-03T00:01:47;5.10;99.90
12726;DHT22;6427;49.754;6.106;2023-04-03T00:04:15;5.10;99.90
12726;DHT22;6427;49.754;6.106;2023-04-03T00:06:42;5.10;99.90
12726;DHT22;6427;49.754;6.106;2023-04-03T00:09:10;5.10;99.90
12726;DHT22;6427;49.754;6.106;2023-04-03T00:11:37;5.10;99.90
12726;DHT22;6427;49.754;6.106;2023-04-03T00:14:05;5.00;99.90
12726;DHT22;6427;49.754;6.106;2023-04-03T00:16:33;5.00;99.90
12726;DHT22;6427;49.754;6.106;2023-04-03T00:19:00;5.20;99.90
12726;DHT22;6427;49.754;6.106;2023-04-03T00:21:28;5.20;99.90
12726;DHT22;6427;49.754;6.106;2023-04-03T00:23:55;5.20;99.90
12726;DHT22;6427;49.754;6.106;2023-04-03T00:26:23;5.20;99.90
12726;DHT22;6427;49.754;6.106;2023-04-03T00:28:50;5.40;99.90
12726;DHT22;6427;49.754;6.106;2023-04-03T00:31:18;5.40;99.90
12726;DHT22;6427;49.754;6.106;2023-04-03T00:33:45;5.30;99.90
12726;DHT22;6427;49.754;6.106;2023-04-03T00:36:13;5.30;99.90
12726;DHT22;6427;49.754;6.106;2023-04-03T00:38:40;5.20;99.90
12726;DHT22;6427;49.754;6.106;2023-04-03T00:41:08;5.10;99.90
12726;DHT22;6427;49.754;6.106;2023-04-03T00:43:36;5.10;99.90
12726;DHT22;6427;49.754;6.106;2023-04-03T00:46:03;5.20;99.90
12726;DHT22;6427;49.754;6.106;2023-04-03T00:48:34;5.10;99.90
12726;DHT22;6427;49.754;6.106;2023-04-03T00:51:02;5.10;99.90
12726;DHT22;6427;49.754;6.106;2023-04-03T00:54:01;5.10;99.90
12726;DHT22;6427;49.754;6.106;2023-04-03T00:56:23;5.10;99.90
12726;DHT22;6427;49.754;6.106;2023-04-03T00:59:03;5.30;99.90
12726;DHT22;6427;49.754;6.106;2023-04-03T01:01:28;5.20;99.90
12726;DHT22;6427;49.754;6.106;2023-04-03T01:03:54;5.40;99.90
12726;DHT22;6427;49.754;6.106;2023-04-03T01:06:26;5.30;99.90
12726;DHT22;6427;49.754;6.106;2023-04-03T01:08:52;5.30;99.90
12726;DHT22;6427;49.754;6.106;2023-04-03T01:11:20;5.20;99.90
12726;DHT22;6427;49.754;6.106;2023-04-03T01:13:47;5.20;99.90
12726;DHT22;6427;49.754;6.106;2023-04-03T01:16:15;5.20;99.90
12726;DHT22;6427;49.754;6.106;2023-04-03T01:18:42;5.10;99.90
12726;DHT22;6427;49.754;6.106;2023-04-03T01:24:11;5.20;99.90
12726;DHT22;6427;49.754;6.106;2023-04-03T01:26:37;5.50;99.90
12726;DHT22;6427;49.754;6.106;2023-04-03T01:29:05;5.40;99.90
12726;DHT22;6427;49.754;6.106;2023-04-03T01:34:02;5.20;99.90
12726;DHT22;6427;49.754;6.106;2023-04-03T01:36:30;5.10;99.90
12726;DHT22;6427;49.754;6.106;2023-04-03T01:38:58;5.00;99.90
12726;DHT22;6427;49.754;6.106;2023-04-03T01:41:25;4.90;99.90
12726;DHT22;6427;49.754;6.106;2023-04-03T01:43:53;4.90;99.90
12726;DHT22;6427;49.754;6.106;2023-04-03T01:46:20;4.80;99.90
12726;DHT22;6427;49.754;6.106;2023-04-03T01:48:48;4.70;99.90
12726;DHT22;6427;49.754;6.106;2023-04-03T01:51:15;4.60;99.90
12726;DHT22;6427;49.754;6.106;2023-04-03T01:53:43;4.60;99.90
12726;DHT22;6427;49.754;6.106;2023-04-03T01:56:10;4.50;99.90
12726;DHT22;6427;49.754;6.106;2023-04-03T01:58:38;4.40;99.90
12726;DHT22;6427;49.754;6.106;2023-04-03T02:01:05;4.40;99.90
12726;DHT22;6427;49.754;6.106;2023-04-03T02:03:33;4.50;99.90
12726;DHT22;6427;49.754;6.106;2023-04-03T02:06:01;4.40;99.90
12726;DHT22;6427;49.754;6.106;2023-04-03T02:08:28;4.60;99.90
12726;DHT22;6427;49.754;6.106;2023-04-03T02:10:56;4.50;99.90
12726;DHT22;6427;49.754;6.106;2023-04-03T02:13:23;4.30;99.90
12726;DHT22;6427;49.754;6.106;2023-04-03T02:15:51;4.20;99.90
12726;DHT22;6427;49.754;6.106;2023-04-03T02:18:18;4.10;99.90
12726;DHT22;6427;49.754;6.106;2023-04-03T02:20:46;4.00;99.90
12726;DHT22;6427;49.754;6.106;2023-04-03T02:23:13;4.00;99.90
12726;DHT22;6427;49.754;6.106;2023-04-03T02:25:41;3.90;99.90
12726;DHT22;6427;49.754;6.106;2023-04-03T02:28:08;3.90;99.90
12726;DHT22;6427;49.754;6.106;2023-04-03T02:30:36;3.80;99.90
12726;DHT22;6427;49.754;6.106;2023-04-03T02:33:04;3.70;99.90
12726;DHT22;6427;49.754;6.106;2023-04-03T02:35:31;3.70;99.90
12726;DHT22;6427;49.754;6.106;2023-04-03T02:37:59;3.70;99.90
12726;DHT22;6427;49.754;6.106;2023-04-03T02:40:26;3.70;99.90
12726;DHT22;6427;49.754;6.106;2023-04-03T02:42:54;3.60;99.90
12726;DHT22;6427;49.754;6.106;2023-04-03T02:45:21;3.60;99.90
12726;DHT22;6427;49.754;6.106;2023-04-03T02:47:49;3.80;99.90
12726;DHT22;6427;49.754;6.106;2023-04-03T02:50:16;3.70;99.90
12726;DHT22;6427;49.754;6.106;2023-04-03T02:52:44;3.90;99.90
12726;DHT22;6427;49.754;6.106;2023-04-03T02:55:13;3.90;99.90
12726;DHT22;6427;49.754;6.106;2023-04-03T02:57:40;3.80;99.90
12726;DHT22;6427;49.754;6.106;2023-04-03T03:00:08;3.70;99.90
12726;DHT22;6427;49.754;6.106;2023-04-03T03:02:36;3.60;99.90
12726;DHT22;6427;49.754;6.106;2023-04-03T03:05:03;3.60;99.90
12726;DHT22;6427;49.754;6.106;2023-04-03T03:07:31;3.40;99.90
12726;DHT22;6427;49.754;6.106;2023-04-03T03:09:59;3.30;99.90
12726;DHT22;6427;49.754;6.106;2023-04-03T03:12:26;3.20;99.90
12726;DHT22;6427;49.754;6.106;2023-04-03T03:14:54;3.20;99.90
12726;DHT22;6427;49.754;6.106;2023-04-03T03:17:22;3.10;99.90
12726;DHT22;6427;49.754;6.106;2023-04-03T03:19:49;3.00;99.90
12726;DHT22;6427;49.754;6.106;2023-04-03T03:22:18;2.90;99.90
12726;DHT22;6427;49.754;6.106;2023-04-03T03:24:44;3.00;99.90
12726;DHT22;6427;49.754;6.106;2023-04-03T03:27:12;3.00;99.90
12726;DHT22;6427;49.754;6.106;2023-04-03T03:29:39;2.80;99.90
12726;DHT22;6427;49.754;6.106;2023-04-03T03:32:07;2.80;99.90
12726;DHT22;6427;49.754;6.106;2023-04-03T03:34:34;2.70;99.90
12726;DHT22;6427;49.754;6.106;2023-04-03T03:37:02;2.60;99.90
12726;DHT22;6427;49.754;6.106;2023-04-03T03:39:30;2.60;99.90
12726;DHT22;6427;49.754;6.106;2023-04-03T03:41:57;2.60;99.90
12726;DHT22;6427;49.754;6.106;2023-04-03T03:44:25;2.50;99.90
12726;DHT22;6427;49.754;6.106;2023-04-03T03:46:52;2.70;99.90
12726;DHT22;6427;49.754;6.106;2023-04-03T03:49:20;2.60;99.90
12726;DHT22;6427;49.754;6.106;2023-04-03T03:51:47;2.80;99.90
12726;DHT22;6427;49.754;6.106;2023-04-03T03:54:15;2.70;99.90
12726;DHT22;6427;49.754;6.106;2023-04-03T03:56:42;2.60;99.90
12726;DHT22;6427;49.754;6.106;2023-04-03T03:59:13;2.50;99.90
12726;DHT22;6427;49.754;6.106;2023-04-03T04:01:38;2.40;99.90
12726;DHT22;6427;49.754;6.106;2023-04-03T04:04:05;2.40;99.90
12726;DHT22;6427;49.754;6.106;2023-04-03T04:06:33;2.60;99.90
12726;DHT22;6427;49.754;6.106;2023-04-03T04:09:00;2.50;99.90
12726;DHT22;6427;49.754;6.106;2023-04-03T04:11:28;2.50;99.90
12726;DHT22;6427;49.754;6.106;2023-04-03T04:13:55;2.30;99.90
12726;DHT22;6427;49.754;6.106;2023-04-03T04:16:23;2.50;99.90
12726;DHT22;6427;49.754;6.106;2023-04-03T04:18:51;2.50;99.90
12726;DHT22;6427;49.754;6.106;2023-04-03T04:21:18;2.40;99.90
12726;DHT22;6427;49.754;6.106;2023-04-03T04:23:46;2.30;99.90
12726;DHT22;6427;49.754;6.106;2023-04-03T04:26:14;2.20;99.90
12726;DHT22;6427;49.754;6.106;2023-04-03T04:28:41;2.10;99.90
12726;DHT22;6427;49.754;6.106;2023-04-03T04:31:09;2.10;99.90
12726;DHT22;6427;49.754;6.106;2023-04-03T04:33:36;2.10;99.90
12726;DHT22;6427;49.754;6.106;2023-04-03T04:36:04;2.10;99.90
12726;DHT22;6427;49.754;6.106;2023-04-03T04:38:31;2.00;99.90
12726;DHT22;6427;49.754;6.106;2023-04-03T04:40:59;2.00;99.90
12726;DHT22;6427;49.754;6.106;2023-04-03T04:43:26;1.90;99.90
12726;DHT22;6427;49.754;6.106;2023-04-03T04:46:03;1.90;99.90
12726;DHT22;6427;49.754;6.106;2023-04-03T04:48:27;1.80;99.90
12726;DHT22;6427;49.754;6.106;2023-04-03T04:50:55;1.80;99.90
12726;DHT22;6427;49.754;6.106;2023-04-03T04:53:23;2.00;99.90
12726;DHT22;6427;49.754;6.106;2023-04-03T04:55:51;2.10;99.90
12726;DHT22;6427;49.754;6.106;2023-04-03T04:58:18;2.00;99.90
12726;DHT22;6427;49.754;6.106;2023-04-03T05:00:45;1.90;99.90
12726;DHT22;6427;49.754;6.106;2023-04-03T05:03:13;1.90;99.90
12726;DHT22;6427;49.754;6.106;2023-04-03T05:05:40;1.90;99.90
12726;DHT22;6427;49.754;6.106;2023-04-03T05:08:09;1.90;99.90
12726;DHT22;6427;49.754;6.106;2023-04-03T05:10:36;2.10;99.90
12726;DHT22;6427;49.754;6.106;2023-04-03T05:13:03;2.30;99.90
12726;DHT22;6427;49.754;6.106;2023-04-03T05:15:31;2.30;99.90
12726;DHT22;6427;49.754;6.106;2023-04-03T05:17:58;2.20;99.90
12726;DHT22;6427;49.754;6.106;2023-04-03T05:20:26;2.10;99.90
12726;DHT22;6427;49.754;6.106;2023-04-03T05:22:53;2.10;99.90
12726;DHT22;6427;49.754;6.106;2023-04-03T05:25:21;2.00;99.90
12726;DHT22;6427;49.754;6.106;2023-04-03T05:27:48;1.90;99.90
12726;DHT22;6427;49.754;6.106;2023-04-03T05:30:16;1.90;99.90
12726;DHT22;6427;49.754;6.106;2023-04-03T05:32:43;1.90;99.90
12726;DHT22;6427;49.754;6.106;2023-04-03T05:35:11;1.90;99.90
12726;DHT22;6427;49.754;6.106;2023-04-03T05:37:39;2.10;99.90
12726;DHT22;6427;49.754;6.106;2023-04-03T05:40:06;2.20;99.90
12726;DHT22;6427;49.754;6.106;2023-04-03T05:42:34;2.10;99.90
12726;DHT22;6427;49.754;6.106;2023-04-03T05:45:01;2.10;99.90
12726;DHT22;6427;49.754;6.106;2023-04-03T05:47:29;2.10;99.90
12726;DHT22;6427;49.754;6.106;2023-04-03T05:49:56;2.10;99.90
12726;DHT22;6427;49.754;6.106;2023-04-03T05:52:28;2.10;99.90
12726;DHT22;6427;49.754;6.106;2023-04-03T05:54:54;2.10;99.90
12726;DHT22;6427;49.754;6.106;2023-04-03T05:57:22;2.30;99.90
12726;DHT22;6427;49.754;6.106;2023-04-03T05:59:49;2.30;99.90
12726;DHT22;6427;49.754;6.106;2023-04-03T06:02:20;2.30;99.90
12726;DHT22;6427;49.754;6.106;2023-04-03T06:04:47;2.30;99.90
12726;DHT22;6427;49.754;6.106;2023-04-03T06:07:15;2.50;99.90
12726;DHT22;6427;49.754;6.106;2023-04-03T06:09:42;2.70;99.90
12726;DHT22;6427;49.754;6.106;2023-04-03T06:12:10;2.70;99.90
12726;DHT22;6427;49.754;6.106;2023-04-03T06:14:37;2.60;99.90
12726;DHT22;6427;49.754;6.106;2023-04-03T06:17:05;2.60;99.90
12726;DHT22;6427;49.754;6.106;2023-04-03T06:19:32;2.80;99.90
12726;DHT22;6427;49.754;6.106;2023-04-03T06:22:00;3.10;99.90
12726;DHT22;6427;49.754;6.106;2023-04-03T06:24:28;3.10;99.90
12726;DHT22;6427;49.754;6.106;2023-04-03T06:26:55;3.00;99.90
12726;DHT22;6427;49.754;6.106;2023-04-03T06:29:23;3.00;99.90
12726;DHT22;6427;49.754;6.106;2023-04-03T06:31:50;2.90;99.90
12726;DHT22;6427;49.754;6.106;2023-04-03T06:34:18;2.90;99.90
12726;DHT22;6427;49.754;6.106;2023-04-03T06:36:45;3.10;99.90
12726;DHT22;6427;49.754;6.106;2023-04-03T06:39:14;3.20;99.90
12726;DHT22;6427;49.754;6.106;2023-04-03T06:41:40;3.20;99.90
12726;DHT22;6427;49.754;6.106;2023-04-03T06:44:08;3.20;99.90
12726;DHT22;6427;49.754;6.106;2023-04-03T06:46:36;3.20;99.90
12726;DHT22;6427;49.754;6.106;2023-04-03T06:49:03;3.30;99.90
12726;DHT22;6427;49.754;6.106;2023-04-03T06:51:31;3.50;99.90
12726;DHT22;6427;49.754;6.106;2023-04-03T06:53:59;3.80;99.90
12726;DHT22;6427;49.754;6.106;2023-04-03T06:56:26;3.80;99.90
12726;DHT22;6427;49.754;6.106;2023-04-03T06:58:54;3.80;99.90
12726;DHT22;6427;49.754;6.106;2023-04-03T07:01:24;3.80;99.90
12726;DHT22;6427;49.754;6.106;2023-04-03T07:03:51;3.90;99.90
12726;DHT22;6427;49.754;6.106;2023-04-03T07:06:19;3.90;99.90
12726;DHT22;6427;49.754;6.106;2023-04-03T07:08:46;4.00;99.90
12726;DHT22;6427;49.754;6.106;2023-04-03T07:11:14;4.00;99.90
12726;DHT22;6427;49.754;6.106;2023-04-03T07:13:41;4.10;99.90
12726;DHT22;6427;49.754;6.106;2023-04-03T07:16:09;4.20;99.90
12726;DHT22;6427;49.754;6.106;2023-04-03T07:18:36;4.30;99.90
12726;DHT22;6427;49.754;6.106;2023-04-03T07:21:04;4.60;99.90
12726;DHT22;6427;49.754;6.106;2023-04-03T07:23:31;4.70;99.90
12726;DHT22;6427;49.754;6.106;2023-04-03T07:25:59;4.70;99.90
12726;DHT22;6427;49.754;6.106;2023-04-03T07:28:26;4.80;99.90
12726;DHT22;6427;49.754;6.106;2023-04-03T07:30:59;4.90;99.90
12726;DHT22;6427;49.754;6.106;2023-04-03T07:33:22;5.10;99.90
12726;DHT22;6427;49.754;6.106;2023-04-03T07:35:49;5.50;99.90
12726;DHT22;6427;49.754;6.106;2023-04-03T07:38:17;5.60;99.90
12726;DHT22;6427;49.754;6.106;2023-04-03T07:40:48;5.60;99.90
12726;DHT22;6427;49.754;6.106;2023-04-03T07:43:15;5.70;99.90
12726;DHT22;6427;49.754;6.106;2023-04-03T07:45:42;5.80;99.90
12726;DHT22;6427;49.754;6.106;2023-04-03T07:48:10;5.80;99.90
12726;DHT22;6427;49.754;6.106;2023-04-03T07:50:39;5.80;99.90
12726;DHT22;6427;49.754;6.106;2023-04-03T07:53:05;6.10;99.90
12726;DHT22;6427;49.754;6.106;2023-04-03T07:55:32;6.10;99.90
12726;DHT22;6427;49.754;6.106;2023-04-03T07:58:00;6.30;99.90
12726;DHT22;6427;49.754;6.106;2023-04-03T08:00:28;6.30;99.90
12726;DHT22;6427;49.754;6.106;2023-04-03T08:02:55;6.30;99.90
12726;DHT22;6427;49.754;6.106;2023-04-03T08:05:23;6.20;99.90
12726;DHT22;6427;49.754;6.106;2023-04-03T08:07:50;6.30;99.90
12726;DHT22;6427;49.754;6.106;2023-04-03T08:10:18;6.30;99.90
12726;DHT22;6427;49.754;6.106;2023-04-03T08:12:46;6.30;99.90
12726;DHT22;6427;49.754;6.106;2023-04-03T08:15:13;6.50;99.90
12726;DHT22;6427;49.754;6.106;2023-04-03T08:17:40;6.50;99.90
12726;DHT22;6427;49.754;6.106;2023-04-03T08:20:09;6.70;99.90
12726;DHT22;6427;49.754;6.106;2023-04-03T08:22:36;6.70;99.90
12726;DHT22;6427;49.754;6.106;2023-04-03T08:25:04;6.70;99.90
12726;DHT22;6427;49.754;6.106;2023-04-03T08:27:31;6.80;99.90
12726;DHT22;6427;49.754;6.106;2023-04-03T08:30:02;6.80;99.90
12726;DHT22;6427;49.754;6.106;2023-04-03T08:32:29;6.80;99.90
12726;DHT22;6427;49.754;6.106;2023-04-03T08:34:57;6.80;99.90
12726;DHT22;6427;49.754;6.106;2023-04-03T08:37:24;6.90;99.90
12726;DHT22;6427;49.754;6.106;2023-04-03T08:39:52;6.90;99.90
12726;DHT22;6427;49.754;6.106;2023-04-03T08:45:12;7.00;99.90
12726;DHT22;6427;49.754;6.106;2023-04-03T08:50:12;6.90;99.90
12726;DHT22;6427;49.754;6.106;2023-04-03T08:52:41;6.90;99.90
12726;DHT22;6427;49.754;6.106;2023-04-03T08:55:54;7.00;99.80
12726;DHT22;6427;49.754;6.106;2023-04-03T08:57:41;7.00;99.20
12726;DHT22;6427;49.754;6.106;2023-04-03T09:02:43;6.80;98.60
12726;DHT22;6427;49.754;6.106;2023-04-03T09:05:18;7.00;98.70
12726;DHT22;6427;49.754;6.106;2023-04-03T09:07:43;7.00;98.60
12726;DHT22;6427;49.754;6.106;2023-04-03T09:10:10;6.90;98.20
12726;DHT22;6427;49.754;6.106;2023-04-03T09:12:43;7.00;97.50
12726;DHT22;6427;49.754;6.106;2023-04-03T09:15:24;7.00;97.50
12726;DHT22;6427;49.754;6.106;2023-04-03T09:18:42;6.90;97.60
12726;DHT22;6427;49.754;6.106;2023-04-03T09:22:54;6.70;97.70
12726;DHT22;6427;49.754;6.106;2023-04-03T09:25:25;6.70;97.80
12726;DHT22;6427;49.754;6.106;2023-04-03T09:27:52;6.70;97.60
12726;DHT22;6427;49.754;6.106;2023-04-03T09:30:23;6.60;97.10
12726;DHT22;6427;49.754;6.106;2023-04-03T09:32:53;6.80;97.00
12726;DHT22;6427;49.754;6.106;2023-04-03T09:35:32;6.70;96.60
12726;DHT22;6427;49.754;6.106;2023-04-03T09:40:32;6.80;97.50
12726;DHT22;6427;49.754;6.106;2023-04-03T09:42:59;6.90;97.40
12726;DHT22;6427;49.754;6.106;2023-04-03T09:45:27;7.10;97.50
12726;DHT22;6427;49.754;6.106;2023-04-03T09:53:31;7.60;96.80
12726;DHT22;6427;49.754;6.106;2023-04-03T09:55:58;7.70;96.00
12726;DHT22;6427;49.754;6.106;2023-04-03T09:58:32;7.60;95.40
12726;DHT22;6427;49.754;6.106;2023-04-03T10:00:59;7.70;94.80
12726;DHT22;6427;49.754;6.106;2023-04-03T10:03:33;7.70;94.60
12726;DHT22;6427;49.754;6.106;2023-04-03T10:05:59;7.70;94.50
12726;DHT22;6427;49.754;6.106;2023-04-03T10:08:33;7.80;94.40
12726;DHT22;6427;49.754;6.106;2023-04-03T10:11:09;7.90;94.70
12726;DHT22;6427;49.754;6.106;2023-04-03T10:13:37;8.30;95.10
12726;DHT22;6427;49.754;6.106;2023-04-03T10:16:11;8.40;94.70
12726;DHT22;6427;49.754;6.106;2023-04-03T10:18:46;8.60;94.30
12726;DHT22;6427;49.754;6.106;2023-04-03T10:24:14;8.70;93.10
12726;DHT22;6427;49.754;6.106;2023-04-03T10:26:57;8.60;92.20
12726;DHT22;6427;49.754;6.106;2023-04-03T10:34:37;8.40;91.70
12726;DHT22;6427;49.754;6.106;2023-04-03T10:37:20;8.40;91.80
12726;DHT22;6427;49.754;6.106;2023-04-03T10:39:59;8.50;92.10
12726;DHT22;6427;49.754;6.106;2023-04-03T10:42:29;8.60;91.10
12726;DHT22;6427;49.754;6.106;2023-04-03T10:48:11;8.60;90.20
12726;DHT22;6427;49.754;6.106;2023-04-03T10:51:25;8.70;90.40
12726;DHT22;6427;49.754;6.106;2023-04-03T10:53:31;8.90;89.60
12726;DHT22;6427;49.754;6.106;2023-04-03T10:58:50;8.80;88.40
12726;DHT22;6427;49.754;6.106;2023-04-03T11:01:18;8.80;87.90
12726;DHT22;6427;49.754;6.106;2023-04-03T11:03:48;8.80;87.90
12726;DHT22;6427;49.754;6.106;2023-04-03T11:06:12;8.90;88.80
12726;DHT22;6427;49.754;6.106;2023-04-03T11:08:44;9.00;87.50
12726;DHT22;6427;49.754;6.106;2023-04-03T11:11:11;9.00;86.70
12726;DHT22;6427;49.754;6.106;2023-04-03T11:13:45;9.10;86.30
12726;DHT22;6427;49.754;6.106;2023-04-03T11:16:13;9.30;85.00
12726;DHT22;6427;49.754;6.106;2023-04-03T11:18:42;9.40;85.30
12726;DHT22;6427;49.754;6.106;2023-04-03T11:21:27;9.50;85.30
12726;DHT22;6427;49.754;6.106;2023-04-03T11:23:51;9.50;85.30
12726;DHT22;6427;49.754;6.106;2023-04-03T11:26:20;9.60;83.50
12726;DHT22;6427;49.754;6.106;2023-04-03T11:28:47;9.70;83.30
12726;DHT22;6427;49.754;6.106;2023-04-03T11:34:19;10.00;78.90
12726;DHT22;6427;49.754;6.106;2023-04-03T11:36:53;10.00;78.30
12726;DHT22;6427;49.754;6.106;2023-04-03T11:39:31;9.90;79.20
12726;DHT22;6427;49.754;6.106;2023-04-03T11:44:47;9.90;79.00
12726;DHT22;6427;49.754;6.106;2023-04-03T11:47:43;10.00;78.40
12726;DHT22;6427;49.754;6.106;2023-04-03T12:16:20;10.60;75.20
12726;DHT22;6427;49.754;6.106;2023-04-03T12:21:21;10.50;75.40
12726;DHT22;6427;49.754;6.106;2023-04-03T12:26:38;10.50;73.60
12726;DHT22;6427;49.754;6.106;2023-04-03T12:32:32;10.70;71.50
12726;DHT22;6427;49.754;6.106;2023-04-03T12:35:27;10.60;71.60
12726;DHT22;6427;49.754;6.106;2023-04-03T12:46:10;10.80;72.10
12726;DHT22;6427;49.754;6.106;2023-04-03T12:48:46;10.80;71.30
12726;DHT22;6427;49.754;6.106;2023-04-03T12:51:06;10.70;71.10
12726;DHT22;6427;49.754;6.106;2023-04-03T12:53:34;10.70;70.90
12726;DHT22;6427;49.754;6.106;2023-04-03T12:58:47;10.60;69.30
12726;DHT22;6427;49.754;6.106;2023-04-03T13:01:16;10.60;69.90
12726;DHT22;6427;49.754;6.106;2023-04-03T13:03:43;10.80;69.30
12726;DHT22;6427;49.754;6.106;2023-04-03T13:06:20;10.80;69.40
12726;DHT22;6427;49.754;6.106;2023-04-03T13:08:56;10.80;69.60
12726;DHT22;6427;49.754;6.106;2023-04-03T13:11:22;10.80;70.00
12726;DHT22;6427;49.754;6.106;2023-04-03T13:16:23;10.80;68.60
12726;DHT22;6427;49.754;6.106;2023-04-03T13:18:52;10.80;68.50
12726;DHT22;6427;49.754;6.106;2023-04-03T13:21:19;10.90;67.50
12726;DHT22;6427;49.754;6.106;2023-04-03T13:23:47;11.10;66.10
12726;DHT22;6427;49.754;6.106;2023-04-03T13:26:15;11.10;65.50
12726;DHT22;6427;49.754;6.106;2023-04-03T13:28:41;11.20;66.30
12726;DHT22;6427;49.754;6.106;2023-04-03T13:33:41;11.10;66.50
12726;DHT22;6427;49.754;6.106;2023-04-03T13:36:16;11.10;66.50
12726;DHT22;6427;49.754;6.106;2023-04-03T13:38:37;11.20;66.70
12726;DHT22;6427;49.754;6.106;2023-04-03T13:41:20;11.40;64.80
12726;DHT22;6427;49.754;6.106;2023-04-03T13:43:34;11.40;64.30
12726;DHT22;6427;49.754;6.106;2023-04-03T13:46:05;11.40;65.10
12726;DHT22;6427;49.754;6.106;2023-04-03T13:48:42;11.40;65.40
12726;DHT22;6427;49.754;6.106;2023-04-03T13:53:46;11.70;63.70
12726;DHT22;6427;49.754;6.106;2023-04-03T13:56:16;11.70;61.20
12726;DHT22;6427;49.754;6.106;2023-04-03T13:58:37;11.90;60.60
12726;DHT22;6427;49.754;6.106;2023-04-03T14:01:11;11.80;60.70
12726;DHT22;6427;49.754;6.106;2023-04-03T14:03:41;11.80;61.20
12726;DHT22;6427;49.754;6.106;2023-04-03T14:06:06;11.70;61.70
12726;DHT22;6427;49.754;6.106;2023-04-03T14:08:33;11.60;61.90
12726;DHT22;6427;49.754;6.106;2023-04-03T14:11:00;11.60;61.50
12726;DHT22;6427;49.754;6.106;2023-04-03T14:13:31;11.60;61.20
12726;DHT22;6427;49.754;6.106;2023-04-03T14:15:58;11.80;60.40
12726;DHT22;6427;49.754;6.106;2023-04-03T14:18:26;11.80;59.80
12726;DHT22;6427;49.754;6.106;2023-04-03T14:20:53;11.70;59.50
12726;DHT22;6427;49.754;6.106;2023-04-03T14:23:21;11.70;59.80
12726;DHT22;6427;49.754;6.106;2023-04-03T14:25:48;11.60;60.30
12726;DHT22;6427;49.754;6.106;2023-04-03T14:28:20;11.60;59.80
12726;DHT22;6427;49.754;6.106;2023-04-03T14:30:47;11.60;60.00
12726;DHT22;6427;49.754;6.106;2023-04-03T14:33:15;11.60;60.10
12726;DHT22;6427;49.754;6.106;2023-04-03T14:35:42;11.60;60.50
12726;DHT22;6427;49.754;6.106;2023-04-03T14:38:26;11.80;59.60
12726;DHT22;6427;49.754;6.106;2023-04-03T14:40:42;11.80;59.60
12726;DHT22;6427;49.754;6.106;2023-04-03T14:43:11;11.90;59.40
12726;DHT22;6427;49.754;6.106;2023-04-03T14:45:38;11.90;59.30
12726;DHT22;6427;49.754;6.106;2023-04-03T14:48:06;11.90;59.90
12726;DHT22;6427;49.754;6.106;2023-04-03T14:50:33;12.00;59.50
12726;DHT22;6427;49.754;6.106;2023-04-03T14:53:00;11.90;59.10
12726;DHT22;6427;49.754;6.106;2023-04-03T14:55:28;11.90;59.60
12726;DHT22;6427;49.754;6.106;2023-04-03T14:57:55;12.10;59.20
12726;DHT22;6427;49.754;6.106;2023-04-03T15:00:23;12.00;58.80
12726;DHT22;6427;49.754;6.106;2023-04-03T15:02:50;11.90;58.30
12726;DHT22;6427;49.754;6.106;2023-04-03T15:05:18;11.80;58.20
12726;DHT22;6427;49.754;6.106;2023-04-03T15:07:52;11.70;58.50
12726;DHT22;6427;49.754;6.106;2023-04-03T15:10:19;11.60;58.60
12726;DHT22;6427;49.754;6.106;2023-04-03T15:12:47;11.70;59.50
12726;DHT22;6427;49.754;6.106;2023-04-03T15:15:14;11.90;58.70
12726;DHT22;6427;49.754;6.106;2023-04-03T15:17:41;12.00;58.20
12726;DHT22;6427;49.754;6.106;2023-04-03T15:20:16;12.10;58.20
12726;DHT22;6427;49.754;6.106;2023-04-03T15:22:42;12.10;58.60
12726;DHT22;6427;49.754;6.106;2023-04-03T15:25:10;12.20;58.20
12726;DHT22;6427;49.754;6.106;2023-04-03T15:27:38;12.30;59.00
12726;DHT22;6427;49.754;6.106;2023-04-03T15:30:06;12.40;58.50
12726;DHT22;6427;49.754;6.106;2023-04-03T15:32:32;12.50;57.90
12726;DHT22;6427;49.754;6.106;2023-04-03T15:35:00;12.60;57.80
12726;DHT22;6427;49.754;6.106;2023-04-03T15:37:28;12.70;57.30
12726;DHT22;6427;49.754;6.106;2023-04-03T15:39:55;12.80;56.40
12726;DHT22;6427;49.754;6.106;2023-04-03T15:42:23;12.70;55.70
12726;DHT22;6427;49.754;6.106;2023-04-03T15:44:50;12.70;56.40
12726;DHT22;6427;49.754;6.106;2023-04-03T15:47:18;12.80;56.40
12726;DHT22;6427;49.754;6.106;2023-04-03T15:49:45;12.80;55.50
12726;DHT22;6427;49.754;6.106;2023-04-03T15:52:13;12.90;55.50
12726;DHT22;6427;49.754;6.106;2023-04-03T15:54:40;12.90;55.40
12726;DHT22;6427;49.754;6.106;2023-04-03T15:57:08;12.90;55.50
12726;DHT22;6427;49.754;6.106;2023-04-03T15:59:35;12.90;55.60
12726;DHT22;6427;49.754;6.106;2023-04-03T16:02:04;13.10;54.90
12726;DHT22;6427;49.754;6.106;2023-04-03T16:04:31;13.10;53.90
12726;DHT22;6427;49.754;6.106;2023-04-03T16:07:00;13.10;54.00
12726;DHT22;6427;49.754;6.106;2023-04-03T16:09:26;13.00;54.50
12726;DHT22;6427;49.754;6.106;2023-04-03T16:11:53;13.00;54.70
12726;DHT22;6427;49.754;6.106;2023-04-03T16:14:21;13.20;55.00
12726;DHT22;6427;49.754;6.106;2023-04-03T16:16:48;13.20;54.50
12726;DHT22;6427;49.754;6.106;2023-04-03T16:19:16;13.40;52.90
12726;DHT22;6427;49.754;6.106;2023-04-03T16:21:43;13.20;52.20
12726;DHT22;6427;49.754;6.106;2023-04-03T16:24:11;13.00;52.70
12726;DHT22;6427;49.754;6.106;2023-04-03T16:26:39;12.80;53.10
12726;DHT22;6427;49.754;6.106;2023-04-03T16:29:06;12.70;53.50
12726;DHT22;6427;49.754;6.106;2023-04-03T16:31:34;12.70;53.70
12726;DHT22;6427;49.754;6.106;2023-04-03T16:34:01;12.70;53.60
12726;DHT22;6427;49.754;6.106;2023-04-03T16:36:29;12.70;53.40
12726;DHT22;6427;49.754;6.106;2023-04-03T16:38:56;12.70;52.90
12726;DHT22;6427;49.754;6.106;2023-04-03T16:41:24;12.70;53.00
12726;DHT22;6427;49.754;6.106;2023-04-03T16:43:51;12.60;52.60
12726;DHT22;6427;49.754;6.106;2023-04-03T16:46:19;12.60;52.50
12726;DHT22;6427;49.754;6.106;2023-04-03T16:48:46;12.50;52.80
12726;DHT22;6427;49.754;6.106;2023-04-03T16:51:14;12.50;52.90
12726;DHT22;6427;49.754;6.106;2023-04-03T16:53:41;12.40;52.70
12726;DHT22;6427;49.754;6.106;2023-04-03T16:56:09;12.30;52.60
12726;DHT22;6427;49.754;6.106;2023-04-03T16:58:37;12.20;52.40
12726;DHT22;6427;49.754;6.106;2023-04-03T17:01:11;12.00;52.50
12726;DHT22;6427;49.754;6.106;2023-04-03T17:03:38;12.00;51.30
12726;DHT22;6427;49.754;6.106;2023-04-03T17:06:05;11.80;51.20
12726;DHT22;6427;49.754;6.106;2023-04-03T17:08:33;11.50;51.60
12726;DHT22;6427;49.754;6.106;2023-04-03T17:11:00;11.20;52.10
12726;DHT22;6427;49.754;6.106;2023-04-03T17:13:28;11.20;52.10
12726;DHT22;6427;49.754;6.106;2023-04-03T17:15:55;10.90;52.10
12726;DHT22;6427;49.754;6.106;2023-04-03T17:18:23;10.60;52.60
12726;DHT22;6427;49.754;6.106;2023-04-03T17:20:50;10.40;54.00
12726;DHT22;6427;49.754;6.106;2023-04-03T17:23:18;10.20;54.20
12726;DHT22;6427;49.754;6.106;2023-04-03T17:25:45;10.00;54.50
12726;DHT22;6427;49.754;6.106;2023-04-03T17:28:13;9.90;54.80
12726;DHT22;6427;49.754;6.106;2023-04-03T17:30:41;9.70;55.00
12726;DHT22;6427;49.754;6.106;2023-04-03T17:33:08;9.60;55.10
12726;DHT22;6427;49.754;6.106;2023-04-03T17:35:36;9.40;55.40
12726;DHT22;6427;49.754;6.106;2023-04-03T17:38:03;9.30;55.90
12726;DHT22;6427;49.754;6.106;2023-04-03T17:40:31;9.20;55.80
12726;DHT22;6427;49.754;6.106;2023-04-03T17:42:58;9.00;55.90